Weather History for St. James, MN

Change the Weather History Date:

Sunday, February 23, 2014

  Actual Average Record
Temperature  
Mean Temperature 12 °F -  
Max Temperature 21 °F 33 °F 60 °F (2002)
Min Temperature 3 °F 15 °F -10 °F (1966)
Degree Days  
Heating Degree Days 53    
Moisture  
Dew Point 5 °F    
Average Humidity 74    
Maximum Humidity 85    
Minimum Humidity 58    
Precipitation  
Precipitation 0.00 in - - ()
Sea Level Pressure  
Sea Level Pressure 30.27 in    
Wind  
Wind Speed 11 mph (WNW)    
Max Wind Speed 20 mph    
Max Gust Speed 25 mph    
Visibility 10 miles    
Events      
Averages and records for this station are not official NWS values.
T = Trace of Precipitation, MM = Missing Value Source: NWS Daily Summary

Daily Weather History Graph

Daily Weather History Graph

Search for Another Location

Airport:

Trip Planner

Search our weather history database for the weather conditions in past years. The results will help you decide how hot, cold, wet, or windy it might be!

Date:

Astronomy

Feb. 23, 2014 Rise Set
Actual Time 7:04 AM CST 5:58 PM CST
Civil Twilight 6:35 AM CST 6:28 PM CST
Nautical Twilight 6:02 AM CST 7:01 PM CST
Astronomical Twilight 5:28 AM CST 7:34 PM CST
Moon 2:10 AM CST (2/23) 11:55 AM CST (2/23)
Length of Visible Light 11h 52m
Length of Day
10h 53m
Last Quarter, 38% of the Moon is Illuminated
Feb 23
Last Quarter
Mar 1
New
Mar 8
First Quarter
Mar 16
Full
Mar 23
Last Quarter

Hourly Weather History & Observations

Time (CST) Temp. Windchill Dew Point Humidity Pressure Visibility Wind Dir Wind Speed Gust Speed Precip Events Conditions
12:15 AM 8.6 °F -5.5 °F 3.2 °F 79% 30.18 in 10.0 mi WNW 10.4 mph - N/A   Clear
12:35 AM 8.6 °F -5.5 °F 3.2 °F 79% 30.18 in 10.0 mi WNW 10.4 mph - N/A   Clear
12:55 AM 8.6 °F -5.5 °F 3.2 °F 79% 30.19 in 10.0 mi WNW 10.4 mph - N/A   Clear
1:14 AM 8.6 °F -5.5 °F 3.2 °F 79% 30.20 in 10.0 mi WNW 10.4 mph - N/A   Clear
1:35 AM 8.6 °F -5.5 °F 3.2 °F 79% 30.20 in 10.0 mi WNW 10.4 mph - N/A   Clear
1:54 AM 8.6 °F -5.5 °F 3.2 °F 79% 30.21 in 10.0 mi WNW 10.4 mph - N/A   Clear
2:15 AM 8.6 °F -5.5 °F 3.2 °F 79% 30.22 in 10.0 mi WNW 10.4 mph - N/A   Clear
2:35 AM 8.6 °F -5.5 °F 3.2 °F 79% 30.21 in 10.0 mi WNW 10.4 mph - N/A   Clear
2:55 AM 8.6 °F -4.7 °F 1.4 °F 73% 30.21 in 10.0 mi WNW 9.2 mph - N/A   Clear
3:15 AM 6.8 °F -4.8 °F 1.4 °F 79% 30.21 in 10.0 mi WNW 6.9 mph - N/A   Clear
3:34 AM 6.8 °F -4.8 °F 1.4 °F 79% 30.21 in 10.0 mi WNW 6.9 mph - N/A   Clear
3:55 AM 6.8 °F -5.9 °F -0.4 °F 72% 30.21 in 10.0 mi WNW 8.1 mph - N/A   Clear
4:15 AM 6.8 °F -5.9 °F 1.4 °F 79% 30.22 in 10.0 mi West 8.1 mph - N/A   Clear
4:34 AM 6.8 °F -6.9 °F 1.4 °F 79% 30.22 in 10.0 mi West 9.2 mph - N/A   Clear
4:55 AM 6.8 °F -5.9 °F 1.4 °F 79% 30.22 in 10.0 mi WNW 8.1 mph - N/A   Clear
5:15 AM 6.8 °F -6.9 °F 1.4 °F 79% 30.22 in 10.0 mi WNW 9.2 mph - N/A   Clear
5:35 AM 6.8 °F -6.9 °F -0.4 °F 72% 30.21 in 10.0 mi WNW 9.2 mph - N/A   Clear
5:55 AM 6.8 °F -6.9 °F 1.4 °F 79% 30.22 in 10.0 mi WNW 9.2 mph - N/A   Clear
6:15 AM 6.8 °F -5.9 °F -0.4 °F 72% 30.23 in 10.0 mi West 8.1 mph - N/A   Clear
6:35 AM 5.0 °F -6.9 °F -0.4 °F 78% 30.23 in 10.0 mi WSW 6.9 mph - N/A   Clear
6:55 AM 3.2 °F -7.8 °F -2.2 °F 78% 30.24 in 10.0 mi WSW 5.8 mph - N/A   Clear
7:15 AM 3.2 °F -7.8 °F -0.4 °F 85% 30.25 in 10.0 mi WSW 5.8 mph - N/A   Clear
7:35 AM 6.8 °F -6.9 °F 1.4 °F 79% 30.26 in 10.0 mi West 9.2 mph - N/A   Clear
7:55 AM 8.6 °F -5.5 °F 1.4 °F 73% 30.27 in 10.0 mi West 10.4 mph - N/A   Mostly Cloudy
8:14 AM 8.6 °F -6.3 °F 1.4 °F 73% 30.27 in 10.0 mi West 11.5 mph - N/A   Mostly Cloudy
8:35 AM 8.6 °F -6.3 °F 1.4 °F 73% 30.28 in 10.0 mi West 11.5 mph - N/A   Scattered Clouds
8:55 AM 10.4 °F -4.8 °F 3.2 °F 73% 30.28 in 10.0 mi West 12.7 mph - N/A   Clear
9:15 AM 10.4 °F -6.0 °F 3.2 °F 73% 30.28 in 10.0 mi WNW 15.0 mph - N/A   Clear
9:35 AM 12.2 °F -4.8 °F 3.2 °F 67% 30.28 in 10.0 mi WNW 17.3 mph 21.9 mph N/A   Clear
9:55 AM 12.2 °F -4.8 °F 3.2 °F 67% 30.29 in 10.0 mi WNW 17.3 mph 21.9 mph N/A   Clear
10:15 AM 12.2 °F -5.8 °F 3.2 °F 67% 30.29 in 10.0 mi West 19.6 mph 25.3 mph N/A   Clear
10:34 AM 12.2 °F -5.3 °F 3.2 °F 67% 30.30 in 10.0 mi WNW 18.4 mph 23.0 mph N/A   Clear
10:55 AM 14.0 °F -2.5 °F 3.2 °F 62% 30.30 in 10.0 mi WNW 17.3 mph - N/A   Clear
11:15 AM 14.0 °F -2.5 °F 3.2 °F 62% 30.30 in 10.0 mi WNW 17.3 mph 23.0 mph N/A   Clear
11:34 AM 15.8 °F -0.6 °F 3.2 °F 58% 30.30 in 10.0 mi West 18.4 mph - N/A   Clear
11:55 AM 15.8 °F 0.3 °F 6.8 °F 68% 30.30 in 10.0 mi WNW 16.1 mph 24.2 mph N/A   Clear
12:15 PM 15.8 °F 0.9 °F 6.8 °F 68% 30.30 in 10.0 mi WNW 15.0 mph - N/A   Clear
12:35 PM 17.6 °F 2.7 °F 6.8 °F 63% 30.29 in 10.0 mi WNW 16.1 mph - N/A   Clear
12:55 PM 17.6 °F 1.7 °F 6.8 °F 63% 30.29 in 10.0 mi WNW 18.4 mph 23.0 mph N/A   Clear
1:14 PM 17.6 °F 2.2 °F 6.8 °F 63% 30.29 in 10.0 mi WNW 17.3 mph - N/A   Clear
1:35 PM 17.6 °F 3.7 °F 8.6 °F 68% 30.29 in 10.0 mi WNW 13.8 mph - N/A   Clear
1:55 PM 19.4 °F 6.6 °F 8.6 °F 63% 30.29 in 10.0 mi WNW 12.7 mph - N/A   Clear
2:14 PM 19.4 °F 6.0 °F 10.4 °F 68% 30.29 in 10.0 mi West 13.8 mph - N/A   Clear
2:35 PM 19.4 °F 6.6 °F 10.4 °F 68% 30.28 in 10.0 mi WNW 12.7 mph - N/A   Clear
2:55 PM 21.2 °F 9.5 °F 10.4 °F 63% 30.28 in 10.0 mi West 11.5 mph - N/A   Clear
3:14 PM 21.2 °F 10.1 °F 10.4 °F 63% 30.28 in 10.0 mi WNW 10.4 mph - N/A   Clear
3:35 PM 21.2 °F 9.5 °F 12.2 °F 68% 30.28 in 10.0 mi WNW 11.5 mph - N/A   Clear
3:55 PM 21.2 °F 8.3 °F 10.4 °F 63% 30.28 in 10.0 mi WNW 13.8 mph - N/A   Clear
4:15 PM 21.2 °F 8.9 °F 10.4 °F 63% 30.28 in 10.0 mi WNW 12.7 mph - N/A   Clear
4:35 PM 21.2 °F 9.5 °F 12.2 °F 68% 30.28 in 10.0 mi WNW 11.5 mph - N/A   Clear
4:55 PM 19.4 °F 7.9 °F 10.4 °F 68% 30.28 in 10.0 mi WNW 10.4 mph - N/A   Clear
5:15 PM 19.4 °F 7.9 °F 10.4 °F 68% 30.29 in 10.0 mi WNW 10.4 mph - N/A   Clear
5:34 PM 17.6 °F 7.3 °F 10.4 °F 73% 30.29 in 10.0 mi WNW 8.1 mph - N/A   Clear
5:55 PM 15.8 °F 5.1 °F 8.6 °F 73% 30.29 in 10.0 mi WNW 8.1 mph - N/A   Clear
6:15 PM 14.0 °F 2.9 °F 8.6 °F 79% 30.29 in 10.0 mi WNW 8.1 mph - N/A   Clear
6:35 PM 14.0 °F 3.9 °F 8.6 °F 79% 30.29 in 10.0 mi West 6.9 mph - N/A   Clear
6:55 PM 12.2 °F 2.9 °F 6.8 °F 79% 30.30 in 10.0 mi West 5.8 mph - N/A   Clear
7:15 PM 12.2 °F 2.9 °F 6.8 °F 79% 30.30 in 10.0 mi WSW 5.8 mph - N/A   Clear
7:35 PM 12.2 °F 2.9 °F 6.8 °F 79% 30.30 in 10.0 mi WSW 5.8 mph - N/A   Clear
7:55 PM 10.4 °F -0.4 °F 6.8 °F 85% 30.30 in 10.0 mi WSW 6.9 mph - N/A   Clear
8:15 PM 10.4 °F -0.4 °F 6.8 °F 85% 30.30 in 10.0 mi West 6.9 mph - N/A   Clear
8:35 PM 10.4 °F -0.4 °F 6.8 °F 85% 30.30 in 10.0 mi WSW 6.9 mph - N/A   Clear
8:55 PM 10.4 °F -1.5 °F 6.8 °F 85% 30.31 in 10.0 mi West 8.1 mph - N/A   Clear
9:15 PM 10.4 °F -2.4 °F 6.8 °F 85% 30.31 in 10.0 mi West 9.2 mph - N/A   Clear
9:35 PM 10.4 °F -3.3 °F 6.8 °F 85% 30.31 in 10.0 mi West 10.4 mph - N/A   Clear
9:54 PM 12.2 °F -2.5 °F 6.8 °F 79% 30.31 in 10.0 mi West 12.7 mph - N/A   Clear
10:15 PM 14.0 °F -0.2 °F 6.8 °F 73% 30.31 in 10.0 mi West 12.7 mph - N/A   Clear
10:35 PM 10.4 °F -3.3 °F 5.0 °F 79% 30.31 in 10.0 mi WNW 10.4 mph - N/A   Clear
10:55 PM 8.6 °F -3.7 °F 3.2 °F 79% 30.32 in 10.0 mi WNW 8.1 mph - N/A   Clear
11:15 PM 8.6 °F -3.7 °F 3.2 °F 79% 30.32 in 10.0 mi WNW 8.1 mph - N/A   Clear
11:35 PM 8.6 °F -3.7 °F 3.2 °F 79% 30.32 in 10.0 mi West 8.1 mph - N/A   Clear
11:55 PM 8.6 °F -5.5 °F 3.2 °F 79% 30.32 in 10.0 mi WNW 10.4 mph - N/A   Clear